Time;durP1;ratioP1;P1;durP2;ratioP2;P2;SDS_P1;SDS_P2;PMS_P1;PMS_P2;Temp;Humidity;BMP_temperature;BMP_pressure;BME280_temperature;BME280_humidity;BME280_pressure;Samples;Min_cycle;Max_cycle;Signal;HPM_P1;HPM_P2
2022/03/15 00:00:58;;;;;;;20.27;8.57;;;;;;;;;;5051048;28;20239;-69
2022/03/15 00:03:24;;;;;;;14.60;7.20;;;;;;;;;;5051716;28;20177;-69
2022/03/15 00:05:50;;;;;;;15.47;7.63;;;;;;;;;;5050721;28;20189;-69
2022/03/15 00:08:17;;;;;;;13.73;7.60;;;;;;;;;;5059461;28;20551;-69
2022/03/15 00:10:44;;;;;;;14.40;7.17;;;;;;;;;;5050205;28;20185;-70
2022/03/15 00:13:10;;;;;;;15.67;7.90;;;;;;;;;;5048872;28;20223;-69
2022/03/15 00:15:38;;;;;;;13.87;8.13;;;;;;;;;;5050894;28;20165;-68
2022/03/15 00:18:04;;;;;;;14.33;7.63;;;;;;;;;;5053608;28;20174;-69
2022/03/15 00:20:30;;;;;;;18.00;10.13;;;;;;;;;;5057980;28;20284;-69
2022/03/15 00:22:57;;;;;;;16.83;8.37;;;;;;;;;;5053336;28;20261;-69
2022/03/15 00:25:22;;;;;;;13.83;8.83;;;;;;;;;;5038212;28;20555;-70
2022/03/15 00:27:50;;;;;;;14.37;7.83;;;;;;;;;;5051628;28;20220;-69
2022/03/15 00:30:16;;;;;;;17.37;8.47;;;;;;;;;;5050442;28;20603;-68
2022/03/15 00:32:41;;;;;;;19.13;9.83;;;;;;;;;;5050331;28;20278;-68
2022/03/15 00:35:14;;;;;;;12.97;8.90;;;;;;;;;;5050545;28;20197;-69
2022/03/15 00:37:39;;;;;;;12.33;8.03;;;;;;;;;;5058407;28;20643;-69
2022/03/15 00:40:05;;;;;;;11.97;8.20;;;;;;;;;;5051986;28;20281;-68
2022/03/15 00:42:30;;;;;;;18.03;9.37;;;;;;;;;;5053208;28;20287;-68
2022/03/15 00:44:55;;;;;;;17.73;9.07;;;;;;;;;;5055483;28;20178;-69
2022/03/15 00:47:20;;;;;;;13.27;8.47;;;;;;;;;;5050128;28;20292;-68
2022/03/15 00:49:45;;;;;;;19.50;10.67;;;;;;;;;;5048399;28;20690;-69
2022/03/15 00:52:10;;;;;;;15.57;9.20;;;;;;;;;;5056849;28;20209;-70
2022/03/15 00:54:36;;;;;;;13.40;8.20;;;;;;;;;;5039419;28;20229;-71
2022/03/15 00:57:02;;;;;;;16.03;10.93;;;;;;;;;;5036831;28;20600;-69
2022/03/15 00:59:27;;;;;;;18.67;9.10;;;;;;;;;;5031869;28;20192;-68
2022/03/15 01:01:52;;;;;;;15.40;9.07;;;;;;;;;;5051168;28;20174;-69
2022/03/15 01:04:18;;;;;;;19.13;8.90;;;;;;;;;;5050866;28;20284;-68
2022/03/15 01:06:44;;;;;;;14.00;8.33;;;;;;;;;;5049580;28;20633;-68
2022/03/15 01:09:09;;;;;;;13.70;8.93;;;;;;;;;;5051158;28;20296;-69
2022/03/15 01:11:35;;;;;;;17.43;9.87;;;;;;;;;;5051416;28;20659;-68
2022/03/15 01:14:00;;;;;;;20.37;9.33;;;;;;;;;;5046253;28;20267;-68
2022/03/15 01:16:25;;;;;;;16.73;8.80;;;;;;;;;;5052758;28;20237;-69
2022/03/15 01:18:50;;;;;;;16.30;9.93;;;;;;;;;;5058389;28;20669;-68
2022/03/15 01:21:16;;;;;;;18.73;10.47;;;;;;;;;;5056327;28;20647;-69
2022/03/15 01:23:41;;;;;;;25.17;10.10;;;;;;;;;;5032590;28;20196;-68
2022/03/15 01:26:07;;;;;;;25.13;11.10;;;;;;;;;;5050047;28;20244;-68
2022/03/15 01:28:32;;;;;;;19.83;11.97;;;;;;;;;;5051133;28;20185;-70
2022/03/15 01:30:57;;;;;;;25.70;12.87;;;;;;;;;;5057719;28;20173;-68
2022/03/15 01:33:23;;;;;;;22.93;11.90;;;;;;;;;;5055024;28;20181;-68
2022/03/15 01:35:48;;;;;;;19.73;11.93;;;;;;;;;;5052931;28;20519;-68
2022/03/15 01:38:13;;;;;;;22.47;13.13;;;;;;;;;;5033283;28;20162;-68
2022/03/15 01:40:38;;;;;;;20.27;14.20;;;;;;;;;;5050821;28;20586;-68
2022/03/15 01:43:03;;;;;;;25.33;13.10;;;;;;;;;;5052633;28;20245;-68
2022/03/15 01:45:35;;;;;;;25.17;12.97;;;;;;;;;;5059443;28;20180;-68
2022/03/15 01:48:01;;;;;;;19.73;12.73;;;;;;;;;;5059321;28;20683;-68
2022/03/15 01:50:27;;;;;;;21.23;13.37;;;;;;;;;;5054485;28;20199;-69
2022/03/15 01:52:52;;;;;;;19.23;12.93;;;;;;;;;;5059943;28;20201;-69
2022/03/15 01:55:18;;;;;;;18.87;12.53;;;;;;;;;;5050316;28;20572;-68
2022/03/15 01:57:43;;;;;;;17.73;12.83;;;;;;;;;;5049518;28;20189;-68
2022/03/15 02:00:09;;;;;;;22.17;12.83;;;;;;;;;;5051539;28;20209;-69
2022/03/15 02:02:34;;;;;;;22.13;14.53;;;;;;;;;;5044641;28;20178;-68
2022/03/15 02:04:59;;;;;;;26.10;14.30;;;;;;;;;;5050011;28;20173;-68
2022/03/15 02:07:25;;;;;;;23.93;13.83;;;;;;;;;;5047300;28;20189;-68
2022/03/15 02:09:51;;;;;;;24.17;13.77;;;;;;;;;;5031738;28;20205;-68
2022/03/15 02:12:16;;;;;;;23.40;13.07;;;;;;;;;;5047623;28;20187;-70
2022/03/15 02:14:41;;;;;;;28.80;13.63;;;;;;;;;;5029584;28;20245;-69
2022/03/15 02:17:07;;;;;;;29.27;15.50;;;;;;;;;;5047552;28;20198;-68
2022/03/15 02:19:32;;;;;;;26.33;16.43;;;;;;;;;;5047446;28;20514;-68
2022/03/15 02:21:57;;;;;;;23.67;15.30;;;;;;;;;;5049986;28;20170;-68
2022/03/15 02:24:23;;;;;;;29.47;16.13;;;;;;;;;;5047783;28;20612;-68
2022/03/15 02:26:49;;;;;;;25.73;16.43;;;;;;;;;;5048993;22;20712;-69
2022/03/15 02:29:15;;;;;;;30.47;15.77;;;;;;;;;;5010354;28;20237;-68
2022/03/15 02:31:40;;;;;;;32.90;16.63;;;;;;;;;;5010097;28;20222;-69
2022/03/15 02:34:06;;;;;;;32.37;17.77;;;;;;;;;;5009240;28;20666;-68
2022/03/15 02:36:31;;;;;;;29.43;16.60;;;;;;;;;;5006385;28;20661;-68
2022/03/15 02:38:57;;;;;;;22.87;16.10;;;;;;;;;;4997716;28;20716;-69
2022/03/15 02:41:22;;;;;;;31.80;17.30;;;;;;;;;;4996064;28;20190;-69
2022/03/15 02:43:47;;;;;;;26.57;17.70;;;;;;;;;;4987200;28;20192;-69
2022/03/15 02:46:12;;;;;;;28.60;17.37;;;;;;;;;;4987162;28;20208;-69
2022/03/15 02:48:38;;;;;;;30.10;17.73;;;;;;;;;;4988319;28;20206;-68
2022/03/15 02:51:08;;;;;;;28.83;18.20;;;;;;;;;;4992255;28;20197;-69
2022/03/15 02:53:34;;;;;;;35.37;18.90;;;;;;;;;;4989486;28;20198;-68
2022/03/15 02:55:59;;;;;;;29.07;16.93;;;;;;;;;;5000984;28;20172;-68
2022/03/15 02:58:24;;;;;;;31.40;17.27;;;;;;;;;;4994107;28;20196;-69
2022/03/15 03:00:49;;;;;;;28.37;16.67;;;;;;;;;;5001183;28;20187;-68
2022/03/15 03:03:15;;;;;;;29.87;17.80;;;;;;;;;;4991823;28;20661;-68
2022/03/15 03:05:40;;;;;;;29.37;19.07;;;;;;;;;;4993122;28;20190;-69
2022/03/15 03:08:05;;;;;;;31.83;19.27;;;;;;;;;;4993504;28;20203;-66
2022/03/15 03:10:31;;;;;;;31.10;19.00;;;;;;;;;;4989759;28;20171;-67
2022/03/15 03:12:56;;;;;;;32.60;19.57;;;;;;;;;;4996167;28;20676;-67
2022/03/15 03:15:22;;;;;;;27.47;19.03;;;;;;;;;;4996133;28;20171;-69
2022/03/15 03:17:48;;;;;;;33.33;18.97;;;;;;;;;;4993900;28;20203;-67
2022/03/15 03:20:18;;;;;;;33.10;18.80;;;;;;;;;;4996792;28;20194;-70
2022/03/15 03:22:43;;;;;;;30.60;20.43;;;;;;;;;;4987719;28;20172;-68
2022/03/15 03:25:09;;;;;;;28.40;20.57;;;;;;;;;;4993037;28;20326;-68
2022/03/15 03:27:34;;;;;;;30.77;20.40;;;;;;;;;;5006350;28;20590;-67
2022/03/15 03:30:00;;;;;;;32.20;20.27;;;;;;;;;;4999393;28;20302;-68
2022/03/15 03:32:25;;;;;;;36.33;21.63;;;;;;;;;;4983539;28;20186;-68
2022/03/15 03:34:51;;;;;;;29.17;19.67;;;;;;;;;;4992776;28;20175;-70
2022/03/15 03:37:16;;;;;;;30.27;20.40;;;;;;;;;;4994152;28;20203;-70
2022/03/15 03:39:42;;;;;;;31.10;19.93;;;;;;;;;;5005618;28;20175;-68
2022/03/15 03:42:08;;;;;;;33.53;20.40;;;;;;;;;;4975775;28;20266;-67
2022/03/15 03:44:34;;;;;;;35.43;22.20;;;;;;;;;;5003123;28;20714;-70
2022/03/15 03:46:59;;;;;;;30.23;21.23;;;;;;;;;;4994969;28;20211;-67
2022/03/15 03:49:24;;;;;;;35.50;21.80;;;;;;;;;;4999296;28;20211;-68
2022/03/15 03:51:50;;;;;;;32.93;20.73;;;;;;;;;;4992945;28;20257;-67
2022/03/15 03:54:15;;;;;;;31.20;21.10;;;;;;;;;;4994438;28;20602;-68
2022/03/15 03:56:40;;;;;;;38.40;22.23;;;;;;;;;;4993176;28;20246;-68
2022/03/15 03:59:05;;;;;;;36.77;20.60;;;;;;;;;;4993571;28;20186;-68
2022/03/15 04:01:30;;;;;;;34.40;22.73;;;;;;;;;;4993586;28;20192;-68
2022/03/15 04:04:05;;;;;;;38.97;23.13;;;;;;;;;;4993225;28;20211;-68
2022/03/15 04:06:30;;;;;;;32.90;21.47;;;;;;;;;;4996419;28;20206;-68
2022/03/15 04:08:56;;;;;;;36.30;22.30;;;;;;;;;;4990209;28;20188;-68
2022/03/15 04:11:21;;;;;;;41.07;21.77;;;;;;;;;;5000267;28;20172;-68
2022/03/15 04:13:46;;;;;;;30.23;21.40;;;;;;;;;;4987486;28;20206;-68
2022/03/15 04:16:12;;;;;;;35.47;21.53;;;;;;;;;;4991402;28;20176;-68
2022/03/15 04:18:37;;;;;;;35.40;21.33;;;;;;;;;;4993061;28;20274;-68
2022/03/15 04:21:02;;;;;;;32.33;20.87;;;;;;;;;;4990987;28;20184;-68
2022/03/15 04:23:27;;;;;;;33.30;22.03;;;;;;;;;;4988356;28;20267;-68
2022/03/15 04:25:53;;;;;;;37.30;22.63;;;;;;;;;;4996281;28;20226;-68
2022/03/15 04:28:18;;;;;;;32.47;23.37;;;;;;;;;;4988349;28;20686;-68
2022/03/15 04:30:43;;;;;;;34.77;20.77;;;;;;;;;;4994330;28;20190;-68
2022/03/15 04:33:08;;;;;;;36.63;21.67;;;;;;;;;;4987486;28;20183;-68
2022/03/15 04:35:34;;;;;;;33.53;22.47;;;;;;;;;;4989982;28;22221;-68
2022/03/15 04:38:00;;;;;;;36.70;20.43;;;;;;;;;;4988525;28;20200;-68
2022/03/15 04:40:25;;;;;;;39.37;21.60;;;;;;;;;;4991897;28;20186;-68
2022/03/15 04:42:52;;;;;;;35.83;22.27;;;;;;;;;;4992560;28;20245;-68
2022/03/15 04:45:17;;;;;;;32.37;21.30;;;;;;;;;;4989872;28;20194;-68
2022/03/15 04:47:43;;;;;;;32.33;21.57;;;;;;;;;;4996552;28;20439;-68
2022/03/15 04:50:09;;;;;;;30.93;20.50;;;;;;;;;;4992357;28;20740;-68
2022/03/15 04:52:34;;;;;;;31.93;20.83;;;;;;;;;;4993779;28;20175;-68
2022/03/15 04:54:59;;;;;;;36.33;20.77;;;;;;;;;;4992500;28;20188;-68
2022/03/15 04:57:25;;;;;;;34.97;21.07;;;;;;;;;;4994295;28;20211;-67
2022/03/15 04:59:50;;;;;;;36.63;21.87;;;;;;;;;;4994644;28;20175;-69
2022/03/15 05:02:15;;;;;;;31.33;20.87;;;;;;;;;;4994517;28;20562;-68
2022/03/15 05:04:40;;;;;;;35.17;22.07;;;;;;;;;;4999913;28;20190;-69
2022/03/15 05:07:05;;;;;;;36.20;21.63;;;;;;;;;;4995833;28;20227;-69
2022/03/15 05:09:31;;;;;;;34.37;23.53;;;;;;;;;;4993749;28;20195;-69
2022/03/15 05:11:56;;;;;;;32.93;21.33;;;;;;;;;;4994573;28;20172;-70
2022/03/15 05:14:21;;;;;;;44.17;22.20;;;;;;;;;;4990660;28;20183;-69
2022/03/15 05:16:46;;;;;;;32.57;20.37;;;;;;;;;;5004451;28;20219;-69
2022/03/15 05:19:12;;;;;;;33.10;21.07;;;;;;;;;;4992847;28;20182;-69
2022/03/15 05:21:37;;;;;;;37.53;22.13;;;;;;;;;;4999738;28;20578;-69
2022/03/15 05:24:03;;;;;;;33.17;21.03;;;;;;;;;;4992315;28;20184;-69
2022/03/15 05:26:28;;;;;;;34.23;21.83;;;;;;;;;;4977363;28;20208;-67
2022/03/15 05:28:53;;;;;;;36.80;22.10;;;;;;;;;;4993051;28;20218;-67
2022/03/15 05:31:19;;;;;;;36.87;23.23;;;;;;;;;;4995140;28;20202;-70
2022/03/15 05:33:45;;;;;;;36.23;21.60;;;;;;;;;;5005909;28;20211;-67
2022/03/15 05:36:11;;;;;;;33.93;20.73;;;;;;;;;;4994889;28;20557;-69
2022/03/15 05:38:36;;;;;;;33.30;20.97;;;;;;;;;;5010572;28;20179;-69
2022/03/15 05:41:01;;;;;;;32.10;21.60;;;;;;;;;;4998927;28;20186;-69
2022/03/15 05:43:27;;;;;;;31.80;20.70;;;;;;;;;;4998615;28;20266;-69
2022/03/15 05:45:52;;;;;;;32.43;21.43;;;;;;;;;;4995546;28;20183;-69
2022/03/15 05:48:18;;;;;;;41.00;23.03;;;;;;;;;;4994941;28;20294;-67
2022/03/15 05:50:43;;;;;;;29.93;22.03;;;;;;;;;;4998571;28;20274;-70
2022/03/15 05:53:08;;;;;;;38.87;23.07;;;;;;;;;;5005607;28;20234;-66
2022/03/15 05:55:34;;;;;;;41.07;22.73;;;;;;;;;;4998905;28;20175;-67
2022/03/15 05:58:00;;;;;;;36.07;24.30;;;;;;;;;;5008749;28;20196;-69
2022/03/15 06:00:26;;;;;;;34.73;21.57;;;;;;;;;;4995824;28;20247;-69
2022/03/15 06:02:51;;;;;;;35.33;22.13;;;;;;;;;;4998693;28;20568;-68
2022/03/15 06:05:16;;;;;;;35.47;22.13;;;;;;;;;;4998914;28;20547;-69
2022/03/15 06:07:48;;;;;;;33.17;23.67;;;;;;;;;;4996631;28;20210;-69
2022/03/15 06:10:15;;;;;;;36.83;22.23;;;;;;;;;;4993973;28;20552;-66
2022/03/15 06:12:41;;;;;;;42.33;24.37;;;;;;;;;;4998086;28;20180;-69
2022/03/15 06:15:06;;;;;;;38.87;21.90;;;;;;;;;;4992366;28;20279;-67
2022/03/15 06:17:32;;;;;;;38.60;23.77;;;;;;;;;;4978195;28;20190;-67
2022/03/15 06:19:57;;;;;;;33.90;22.43;;;;;;;;;;5002001;28;20180;-67
2022/03/15 06:22:22;;;;;;;35.70;22.30;;;;;;;;;;4993223;28;20187;-67
2022/03/15 06:24:47;;;;;;;31.57;23.13;;;;;;;;;;5000881;28;20654;-67
2022/03/15 06:27:13;;;;;;;35.13;23.13;;;;;;;;;;4993096;28;20253;-67
2022/03/15 06:29:38;;;;;;;37.30;23.27;;;;;;;;;;5000462;28;20203;-67
2022/03/15 06:32:03;;;;;;;33.37;22.97;;;;;;;;;;4990988;28;20693;-70
2022/03/15 06:34:28;;;;;;;30.60;20.57;;;;;;;;;;5000041;28;20183;-70
2022/03/15 06:36:54;;;;;;;30.47;21.70;;;;;;;;;;4993412;28;20215;-67
2022/03/15 06:39:19;;;;;;;28.37;20.87;;;;;;;;;;4995583;28;20183;-67
2022/03/15 06:41:44;;;;;;;38.97;24.10;;;;;;;;;;4975536;28;20708;-67
2022/03/15 06:44:10;;;;;;;32.70;22.37;;;;;;;;;;5004552;28;20299;-70
2022/03/15 06:46:35;;;;;;;33.97;22.33;;;;;;;;;;4993942;28;20274;-70
2022/03/15 06:49:00;;;;;;;36.13;21.63;;;;;;;;;;5000988;28;20687;-70
2022/03/15 06:51:26;;;;;;;37.87;22.07;;;;;;;;;;4995528;28;20866;-69
2022/03/15 06:53:51;;;;;;;37.60;22.53;;;;;;;;;;5001563;28;20291;-69
2022/03/15 06:56:17;;;;;;;30.50;21.47;;;;;;;;;;5001294;28;20176;-69
2022/03/15 06:58:43;;;;;;;32.07;21.83;;;;;;;;;;4998442;28;20191;-69
2022/03/15 07:01:09;;;;;;;28.33;21.10;;;;;;;;;;4986577;28;20212;-69
2022/03/15 07:03:34;;;;;;;30.37;19.97;;;;;;;;;;4983912;28;20182;-70
2022/03/15 07:05:59;;;;;;;32.50;20.43;;;;;;;;;;4996742;28;20236;-70
2022/03/15 07:08:24;;;;;;;29.07;20.37;;;;;;;;;;5002716;28;20669;-70
2022/03/15 07:10:50;;;;;;;32.20;22.63;;;;;;;;;;4993206;28;20232;-69
2022/03/15 07:13:15;;;;;;;28.63;21.07;;;;;;;;;;4992997;28;20195;-69
2022/03/15 07:15:40;;;;;;;34.00;20.87;;;;;;;;;;4993388;28;20198;-68
2022/03/15 07:18:05;;;;;;;33.00;22.00;;;;;;;;;;4989921;28;20271;-69
2022/03/15 07:20:31;;;;;;;33.40;22.03;;;;;;;;;;4988543;28;20183;-68
2022/03/15 07:22:56;;;;;;;31.30;21.53;;;;;;;;;;4960853;28;21702;-69
2022/03/15 07:25:21;;;;;;;30.57;21.47;;;;;;;;;;4996534;28;20176;-69
2022/03/15 07:27:47;;;;;;;26.43;19.70;;;;;;;;;;4995750;28;20223;-69
2022/03/15 07:30:13;;;;;;;25.97;18.97;;;;;;;;;;4991857;28;20238;-69
2022/03/15 07:32:38;;;;;;;29.87;18.80;;;;;;;;;;4996618;28;20172;-69
2022/03/15 07:35:03;;;;;;;24.73;18.83;;;;;;;;;;4993601;28;20168;-70
2022/03/15 07:37:29;;;;;;;34.70;19.47;;;;;;;;;;4988039;28;20191;-70
2022/03/15 07:39:54;;;;;;;23.80;19.70;;;;;;;;;;4996754;28;20215;-69
2022/03/15 07:42:19;;;;;;;28.73;20.07;;;;;;;;;;4985192;28;20192;-69
2022/03/15 07:44:45;;;;;;;26.70;18.67;;;;;;;;;;4996959;28;20167;-69
2022/03/15 07:47:11;;;;;;;25.50;19.87;;;;;;;;;;4974579;28;20207;-68
2022/03/15 07:49:36;;;;;;;27.20;18.70;;;;;;;;;;4993939;28;20210;-69
2022/03/15 07:52:02;;;;;;;26.60;19.00;;;;;;;;;;4989568;28;20175;-69
2022/03/15 07:54:27;;;;;;;26.87;19.20;;;;;;;;;;4998101;28;20714;-69
2022/03/15 07:56:53;;;;;;;24.77;18.67;;;;;;;;;;4992972;28;20292;-69
2022/03/15 07:59:18;;;;;;;28.47;19.67;;;;;;;;;;4983988;28;20183;-69
2022/03/15 08:01:44;;;;;;;26.47;19.70;;;;;;;;;;4988038;28;20559;-69
2022/03/15 08:04:09;;;;;;;22.53;18.37;;;;;;;;;;4993695;28;20548;-68
2022/03/15 08:06:35;;;;;;;25.87;20.13;;;;;;;;;;4990457;28;20192;-68
2022/03/15 08:09:01;;;;;;;27.73;17.00;;;;;;;;;;4975860;28;20711;-68
2022/03/15 08:11:26;;;;;;;25.07;17.93;;;;;;;;;;4996961;28;20876;-68
2022/03/15 08:13:53;;;;;;;25.27;17.80;;;;;;;;;;4994999;28;20728;-68
2022/03/15 08:16:19;;;;;;;27.07;19.07;;;;;;;;;;4970062;28;20175;-68
2022/03/15 08:18:44;;;;;;;28.33;18.17;;;;;;;;;;4987531;28;20241;-68
2022/03/15 08:21:10;;;;;;;22.30;17.27;;;;;;;;;;5002576;28;20568;-68
2022/03/15 08:23:36;;;;;;;23.53;16.90;;;;;;;;;;4994337;28;20176;-68
2022/03/15 08:26:01;;;;;;;19.23;16.00;;;;;;;;;;4994283;28;20182;-68
2022/03/15 08:28:27;;;;;;;24.43;16.10;;;;;;;;;;4993369;28;20724;-68
2022/03/15 08:30:53;;;;;;;26.40;17.73;;;;;;;;;;4994877;28;20209;-68
2022/03/15 08:33:18;;;;;;;21.57;16.57;;;;;;;;;;4994073;28;20184;-69
2022/03/15 08:35:43;;;;;;;22.57;17.03;;;;;;;;;;4993245;28;20176;-69
2022/03/15 08:38:11;;;;;;;25.83;16.73;;;;;;;;;;4996242;28;20299;-68
2022/03/15 08:40:36;;;;;;;20.30;16.70;;;;;;;;;;4990670;28;20263;-69
2022/03/15 08:43:01;;;;;;;22.83;15.33;;;;;;;;;;4995614;28;20274;-69
2022/03/15 08:45:26;;;;;;;20.67;15.50;;;;;;;;;;4995571;28;20226;-69
2022/03/15 08:47:52;;;;;;;19.80;15.10;;;;;;;;;;4993847;28;20265;-69
2022/03/15 08:50:18;;;;;;;24.07;16.20;;;;;;;;;;4990488;28;20333;-68
2022/03/15 08:52:44;;;;;;;18.83;15.07;;;;;;;;;;4992570;28;20184;-68
2022/03/15 08:55:09;;;;;;;17.80;14.97;;;;;;;;;;4989251;28;20704;-68
2022/03/15 08:57:34;;;;;;;21.00;14.73;;;;;;;;;;4997085;28;20295;-69
2022/03/15 09:00:00;;;;;;;20.37;15.40;;;;;;;;;;4995035;28;20689;-69
2022/03/15 09:02:25;;;;;;;18.30;14.33;;;;;;;;;;4986601;28;20217;-68
2022/03/15 09:04:50;;;;;;;21.93;13.37;;;;;;;;;;5003599;28;20277;-69
2022/03/15 09:07:15;;;;;;;18.33;15.23;;;;;;;;;;4991255;28;20725;-68
2022/03/15 09:09:40;;;;;;;18.30;13.87;;;;;;;;;;4992749;28;20294;-69
2022/03/15 09:12:06;;;;;;;18.30;13.20;;;;;;;;;;4999561;28;20629;-69
2022/03/15 09:14:31;;;;;;;17.53;12.97;;;;;;;;;;4993888;28;20191;-69
2022/03/15 09:16:57;;;;;;;20.20;13.63;;;;;;;;;;4991782;28;20218;-69
2022/03/15 09:19:23;;;;;;;18.73;13.50;;;;;;;;;;4993237;28;20225;-69
2022/03/15 09:21:48;;;;;;;18.50;11.73;;;;;;;;;;5002346;28;20187;-69
2022/03/15 09:24:13;;;;;;;16.17;12.93;;;;;;;;;;4989887;28;20236;-69
2022/03/15 09:26:42;;;;;;;18.73;13.03;;;;;;;;;;4991567;28;20306;-69
2022/03/15 09:29:07;;;;;;;16.83;12.37;;;;;;;;;;4992611;28;20195;-69
2022/03/15 09:31:32;;;;;;;17.33;12.40;;;;;;;;;;4986512;28;20180;-69
2022/03/15 09:33:57;;;;;;;17.27;12.40;;;;;;;;;;5002926;28;20270;-70
2022/03/15 09:36:23;;;;;;;17.20;13.00;;;;;;;;;;4990715;28;20208;-69
2022/03/15 09:38:49;;;;;;;20.27;14.30;;;;;;;;;;4995227;28;20191;-70
2022/03/15 09:41:15;;;;;;;20.03;13.33;;;;;;;;;;5003690;28;20186;-69
2022/03/15 09:43:45;;;;;;;16.27;12.90;;;;;;;;;;4971243;28;20285;-67
2022/03/15 09:46:11;;;;;;;13.53;12.13;;;;;;;;;;4989064;28;20180;-69
2022/03/15 09:48:36;;;;;;;16.43;12.73;;;;;;;;;;4994709;28;20637;-68
2022/03/15 09:51:04;;;;;;;18.53;12.80;;;;;;;;;;4989628;28;20178;-67
2022/03/15 09:53:31;;;;;;;16.53;12.47;;;;;;;;;;4993398;28;20171;-67
2022/03/15 09:55:56;;;;;;;17.57;12.57;;;;;;;;;;4981695;28;20469;-68
2022/03/15 09:58:22;;;;;;;18.10;12.33;;;;;;;;;;4990743;28;20199;-68
2022/03/15 10:00:51;;;;;;;17.03;11.83;;;;;;;;;;4984531;28;20664;-68
2022/03/15 10:03:16;;;;;;;16.20;11.63;;;;;;;;;;4985066;28;20204;-68
2022/03/15 10:05:42;;;;;;;13.30;10.43;;;;;;;;;;4995122;28;20176;-67
2022/03/15 10:08:07;;;;;;;17.90;11.60;;;;;;;;;;5002448;28;20203;-68
2022/03/15 10:10:32;;;;;;;12.73;10.10;;;;;;;;;;4980333;28;20194;-67
2022/03/15 10:12:57;;;;;;;13.48;10.40;;;;;;;;;;4988603;28;20234;-68
2022/03/15 10:15:25;;;;;;;13.93;11.67;;;;;;;;;;4990016;28;20186;-67
2022/03/15 10:17:55;;;;;;;17.83;10.68;;;;;;;;;;4988997;28;20273;-68
2022/03/15 10:20:25;;;;;;;17.33;11.38;;;;;;;;;;4980086;28;20211;-67
2022/03/15 10:22:52;;;;;;;16.50;10.97;;;;;;;;;;4998630;28;20236;-68
2022/03/15 10:25:17;;;;;;;13.70;10.90;;;;;;;;;;4997618;28;20606;-68
2022/03/15 10:27:42;;;;;;;17.75;11.27;;;;;;;;;;4989732;28;20274;-68
2022/03/15 10:30:08;;;;;;;12.73;10.57;;;;;;;;;;4992091;28;20215;-68
2022/03/15 10:32:33;;;;;;;13.98;11.63;;;;;;;;;;4989053;28;20663;-68
2022/03/15 10:35:06;;;;;;;17.77;10.88;;;;;;;;;;4991659;28;20214;-68
2022/03/15 10:37:32;;;;;;;13.45;9.93;;;;;;;;;;4987705;28;20233;-68
2022/03/15 10:39:57;;;;;;;17.35;11.02;;;;;;;;;;4991493;28;20631;-68
2022/03/15 10:42:23;;;;;;;19.65;11.27;;;;;;;;;;4989632;28;20188;-68
2022/03/15 10:44:48;;;;;;;17.05;11.05;;;;;;;;;;4996478;28;20270;-68
2022/03/15 10:47:15;;;;;;;18.05;10.45;;;;;;;;;;4995520;28;20202;-69
2022/03/15 10:49:47;;;;;;;12.95;10.43;;;;;;;;;;4992485;28;20240;-69
2022/03/15 10:52:12;;;;;;;14.65;10.25;;;;;;;;;;4988755;28;20669;-68
2022/03/15 10:54:38;;;;;;;11.55;10.35;;;;;;;;;;4992509;28;20222;-69
2022/03/15 10:57:03;;;;;;;14.30;9.57;;;;;;;;;;4994420;28;20246;-68
2022/03/15 10:59:28;;;;;;;16.55;11.13;;;;;;;;;;4994558;28;20269;-69
2022/03/15 11:01:54;;;;;;;17.15;10.25;;;;;;;;;;4992962;28;20598;-69
2022/03/15 11:04:20;;;;;;;13.90;10.25;;;;;;;;;;4987701;28;20184;-68
2022/03/15 11:06:46;;;;;;;12.70;10.13;;;;;;;;;;4993202;28;20229;-69
2022/03/15 11:09:20;;;;;;;15.65;9.82;;;;;;;;;;4989906;28;20203;-69
2022/03/15 11:11:47;;;;;;;11.90;9.10;;;;;;;;;;4998523;28;20214;-68
2022/03/15 11:14:13;;;;;;;11.60;8.68;;;;;;;;;;4996397;28;20243;-69
2022/03/15 11:16:39;;;;;;;31.52;9.85;;;;;;;;;;5000116;28;20188;-69
2022/03/15 11:19:05;;;;;;;12.57;8.57;;;;;;;;;;4993421;28;20183;-69
2022/03/15 11:21:34;;;;;;;14.90;10.13;;;;;;;;;;4987523;28;20726;-69
2022/03/15 11:23:59;;;;;;;16.40;9.35;;;;;;;;;;4993987;28;20195;-69
2022/03/15 11:26:27;;;;;;;15.50;8.88;;;;;;;;;;4999806;28;20578;-67
2022/03/15 11:28:52;;;;;;;11.32;9.13;;;;;;;;;;4996316;28;20203;-67
2022/03/15 11:31:18;;;;;;;15.45;9.13;;;;;;;;;;4996632;28;20650;-70
2022/03/15 11:33:47;;;;;;;11.18;8.55;;;;;;;;;;4993586;28;20526;-69
2022/03/15 11:36:13;;;;;;;10.68;8.73;;;;;;;;;;4992884;28;20176;-69
2022/03/15 11:38:40;;;;;;;12.82;8.90;;;;;;;;;;4998440;28;20179;-69
2022/03/15 11:41:06;;;;;;;15.02;9.52;;;;;;;;;;4989752;28;20180;-69
2022/03/15 11:43:40;;;;;;;13.48;7.85;;;;;;;;;;4971685;28;20591;-69
2022/03/15 11:46:13;;;;;;;11.32;7.55;;;;;;;;;;4994666;28;20183;-67
2022/03/15 11:48:53;;;;;;;11.68;7.80;;;;;;;;;;4991150;28;20404;-67
2022/03/15 11:51:38;;;;;;;9.20;7.25;;;;;;;;;;4998124;28;20175;-70
2022/03/15 11:54:14;;;;;;;11.38;7.97;;;;;;;;;;4997512;28;20179;-69
2022/03/15 11:57:13;;;;;;;9.80;6.95;;;;;;;;;;4980935;28;20286;-68
2022/03/15 11:59:49;;;;;;;11.70;6.93;;;;;;;;;;4949709;28;20270;-69
2022/03/15 12:02:26;;;;;;;11.32;6.35;;;;;;;;;;4993651;28;20187;-69
2022/03/15 12:04:52;;;;;;;9.18;5.90;;;;;;;;;;4990104;28;20175;-69
2022/03/15 12:07:27;;;;;;;10.15;5.80;;;;;;;;;;4972101;28;20192;-69
2022/03/15 12:09:56;;;;;;;8.32;5.97;;;;;;;;;;4996994;28;20218;-67
2022/03/15 12:12:29;;;;;;;9.75;6.07;;;;;;;;;;4987229;28;20668;-67
2022/03/15 12:14:54;;;;;;;10.77;6.15;;;;;;;;;;4991822;28;20180;-67
2022/03/15 12:17:20;;;;;;;9.43;5.50;;;;;;;;;;4992803;28;20669;-67
2022/03/15 12:19:50;;;;;;;7.45;6.22;;;;;;;;;;4992101;28;20776;-67
2022/03/15 12:22:21;;;;;;;9.82;6.10;;;;;;;;;;4991090;28;20186;-67
2022/03/15 12:24:47;;;;;;;8.73;5.07;;;;;;;;;;4992042;28;20563;-66
2022/03/15 12:27:16;;;;;;;19.35;7.03;;;;;;;;;;4997548;28;20223;-66
2022/03/15 12:29:54;;;;;;;8.40;5.40;;;;;;;;;;4995822;28;20211;-66
2022/03/15 12:32:20;;;;;;;8.85;6.65;;;;;;;;;;4997451;28;20175;-67
2022/03/15 12:34:49;;;;;;;8.00;5.15;;;;;;;;;;4989860;28;20182;-67
2022/03/15 12:37:15;;;;;;;10.88;5.10;;;;;;;;;;4991946;28;20191;-66
2022/03/15 12:39:41;;;;;;;13.48;5.65;;;;;;;;;;4991682;28;20210;-67
2022/03/15 12:42:06;;;;;;;8.55;5.60;;;;;;;;;;4983161;28;20179;-67
2022/03/15 12:44:51;;;;;;;5.55;4.97;;;;;;;;;;4976063;28;20182;-68
2022/03/15 12:47:26;;;;;;;9.38;5.15;;;;;;;;;;4992950;28;20227;-68
2022/03/15 12:50:11;;;;;;;6.70;4.95;;;;;;;;;;4995055;28;20210;-68
2022/03/15 12:52:37;;;;;;;8.95;5.53;;;;;;;;;;4990296;28;20182;-68
2022/03/15 12:55:02;;;;;;;9.18;5.32;;;;;;;;;;4989489;28;20176;-68
2022/03/15 12:57:28;;;;;;;8.57;5.88;;;;;;;;;;4995768;28;20201;-68
2022/03/15 12:59:54;;;;;;;6.60;5.05;;;;;;;;;;4982910;28;20199;-68
2022/03/15 13:02:19;;;;;;;7.78;5.90;;;;;;;;;;4991752;28;20188;-67
2022/03/15 13:04:45;;;;;;;7.43;5.80;;;;;;;;;;4992684;28;20278;-68
2022/03/15 13:07:11;;;;;;;8.90;4.95;;;;;;;;;;4989373;28;20488;-68
2022/03/15 13:09:37;;;;;;;9.90;5.28;;;;;;;;;;4991872;28;20281;-68
2022/03/15 13:12:15;;;;;;;9.20;6.10;;;;;;;;;;4996173;28;20179;-68
2022/03/15 13:14:42;;;;;;;8.80;5.10;;;;;;;;;;4990488;28;20675;-68
2022/03/15 13:17:07;;;;;;;9.85;5.50;;;;;;;;;;5000849;28;20195;-68
2022/03/15 13:19:34;;;;;;;7.03;5.30;;;;;;;;;;4984357;28;20563;-69
2022/03/15 13:22:00;;;;;;;11.60;5.43;;;;;;;;;;4986680;28;20568;-68
2022/03/15 13:24:34;;;;;;;8.52;5.47;;;;;;;;;;4992834;28;20275;-68
2022/03/15 13:26:59;;;;;;;10.07;4.88;;;;;;;;;;4991617;28;20588;-68
2022/03/15 13:29:27;;;;;;;11.43;5.47;;;;;;;;;;4991388;28;20208;-68
2022/03/15 13:31:54;;;;;;;8.45;5.55;;;;;;;;;;4995671;28;20198;-68
2022/03/15 13:34:23;;;;;;;10.05;5.97;;;;;;;;;;4990731;28;20617;-68
2022/03/15 13:36:49;;;;;;;5.45;4.38;;;;;;;;;;4989115;28;20397;-68
2022/03/15 13:39:15;;;;;;;5.43;4.80;;;;;;;;;;4988815;28;20612;-68
2022/03/15 13:41:42;;;;;;;7.35;5.13;;;;;;;;;;4988774;28;20175;-68
2022/03/15 13:44:15;;;;;;;8.25;4.70;;;;;;;;;;4974369;28;20681;-68
2022/03/15 13:46:40;;;;;;;6.32;4.75;;;;;;;;;;5000172;28;20198;-68
2022/03/15 13:49:05;;;;;;;6.57;4.65;;;;;;;;;;4994634;28;20212;-68
2022/03/15 13:51:35;;;;;;;9.52;5.82;;;;;;;;;;4984260;28;20179;-66
2022/03/15 13:54:11;;;;;;;6.63;4.80;;;;;;;;;;4993711;28;20579;-68
2022/03/15 13:56:48;;;;;;;9.55;4.93;;;;;;;;;;4992847;28;20188;-67
2022/03/15 13:59:15;;;;;;;6.80;5.18;;;;;;;;;;4996814;28;20622;-68
2022/03/15 14:01:41;;;;;;;8.43;5.70;;;;;;;;;;4990973;28;20190;-67
2022/03/15 14:04:08;;;;;;;6.15;4.80;;;;;;;;;;4990647;28;20198;-67
2022/03/15 14:06:35;;;;;;;6.70;5.60;;;;;;;;;;4994885;28;20228;-67
2022/03/15 14:09:00;;;;;;;7.10;5.88;;;;;;;;;;4989407;28;20203;-67
2022/03/15 14:11:31;;;;;;;9.23;5.85;;;;;;;;;;4990251;28;20306;-67
2022/03/15 14:14:08;;;;;;;6.30;5.63;;;;;;;;;;4990817;28;20614;-67
2022/03/15 14:16:44;;;;;;;7.13;5.43;;;;;;;;;;4996818;28;20202;-67
2022/03/15 14:19:15;;;;;;;11.68;6.93;;;;;;;;;;4987744;28;20206;-67